Time;durP1;ratioP1;P1;durP2;ratioP2;P2;SDS_P1;SDS_P2;PMS_P1;PMS_P2;Temp;Humidity;BMP_temperature;BMP_pressure;BME280_temperature;BME280_humidity;BME280_pressure;Samples;Min_cycle;Max_cycle;Signal;HPM_P1;HPM_P2
2021/09/04 00:01:12;;;;;;;20.40;15.48;;;18.40;93.10;;;;;;5093026;28;20032;-57
2021/09/04 00:03:37;;;;;;;21.08;15.73;;;18.40;93.20;;;;;;5093292;28;20059;-52
2021/09/04 00:06:03;;;;;;;18.10;15.50;;;18.10;93.80;;;;;;5092844;28;20024;-54
2021/09/04 00:08:29;;;;;;;19.60;16.40;;;18.10;93.60;;;;;;5093035;28;20082;-52
2021/09/04 00:10:54;;;;;;;19.65;15.75;;;18.00;93.90;;;;;;5092798;28;20090;-51
2021/09/04 00:13:20;;;;;;;21.45;16.85;;;18.10;93.90;;;;;;5092903;28;20491;-55
2021/09/04 00:15:46;;;;;;;22.20;16.52;;;18.10;93.60;;;;;;5092905;28;20028;-53
2021/09/04 00:18:12;;;;;;;19.55;14.98;;;18.20;93.60;;;;;;5092070;28;20044;-56
2021/09/04 00:20:37;;;;;;;18.05;15.32;;;18.10;93.80;;;;;;5080644;28;20032;-56
2021/09/04 00:23:03;;;;;;;18.67;15.43;;;18.10;94.00;;;;;;5072128;28;20519;-56
2021/09/04 00:25:29;;;;;;;17.77;14.35;;;18.10;94.00;;;;;;5072236;28;20036;-53
2021/09/04 00:27:54;;;;;;;19.35;15.32;;;17.90;94.30;;;;;;5072812;28;20055;-57
2021/09/04 00:30:20;;;;;;;17.50;15.00;;;18.00;94.30;;;;;;5072124;28;20032;-57
2021/09/04 00:32:45;;;;;;;18.67;15.02;;;17.90;94.20;;;;;;5072570;28;20040;-55
2021/09/04 00:35:11;;;;;;;22.50;15.80;;;17.90;94.40;;;;;;5073051;28;20033;-54
2021/09/04 00:37:37;;;;;;;17.00;15.20;;;17.90;94.40;;;;;;5072041;28;20036;-56
2021/09/04 00:40:04;;;;;;;20.95;16.98;;;17.90;94.40;;;;;;5071901;28;20055;-57
2021/09/04 00:42:30;;;;;;;18.42;15.55;;;17.80;94.40;;;;;;5076714;28;20048;-57
2021/09/04 00:44:55;;;;;;;19.92;14.38;;;17.80;94.70;;;;;;5091970;28;20047;-52
2021/09/04 00:47:22;;;;;;;17.10;15.20;;;17.70;94.70;;;;;;5092892;28;20056;-56
2021/09/04 00:49:48;;;;;;;16.63;14.80;;;17.60;94.90;;;;;;5092780;28;20128;-55
2021/09/04 00:52:15;;;;;;;18.70;15.50;;;17.50;95.10;;;;;;5091828;28;20051;-53
2021/09/04 00:54:41;;;;;;;19.08;15.07;;;17.50;95.20;;;;;;5092073;28;20066;-53
2021/09/04 00:57:07;;;;;;;17.15;13.55;;;17.70;95.00;;;;;;5092145;28;20032;-55
2021/09/04 00:59:33;;;;;;;14.98;13.38;;;17.70;95.10;;;;;;5092232;28;20522;-57
2021/09/04 01:01:59;;;;;;;16.02;13.50;;;17.70;95.00;;;;;;5092041;28;20036;-57
2021/09/04 01:04:25;;;;;;;15.10;13.35;;;17.80;94.90;;;;;;5092391;28;20035;-56
2021/09/04 01:06:51;;;;;;;18.10;14.63;;;17.80;94.80;;;;;;5092341;28;20032;-55
2021/09/04 01:09:17;;;;;;;19.33;15.45;;;17.90;94.60;;;;;;5092217;28;20036;-58
2021/09/04 01:11:43;;;;;;;22.25;16.83;;;17.80;94.60;;;;;;5091666;28;20070;-56
2021/09/04 01:14:08;;;;;;;22.48;17.30;;;17.60;94.80;;;;;;5092154;28;20506;-57
2021/09/04 01:16:39;;;;;;;23.17;18.38;;;17.50;94.80;;;;;;5092275;28;20035;-56
2021/09/04 01:19:06;;;;;;;26.10;18.50;;;17.30;95.30;;;;;;5092683;28;20713;-56
2021/09/04 01:21:33;;;;;;;22.42;17.00;;;17.20;95.60;;;;;;5073618;28;20233;-56
2021/09/04 01:24:00;;;;;;;21.00;17.23;;;17.20;95.70;;;;;;5072725;28;20024;-55
2021/09/04 01:26:26;;;;;;;23.35;17.75;;;17.30;95.60;;;;;;5071323;28;20043;-52
2021/09/04 01:28:55;;;;;;;22.05;17.20;;;17.20;95.60;;;;;;5071932;28;20032;-56
2021/09/04 01:31:22;;;;;;;23.75;17.63;;;17.20;95.80;;;;;;5072331;28;20040;-54
2021/09/04 01:33:48;;;;;;;24.92;18.83;;;17.20;95.60;;;;;;5071367;28;20094;-52
2021/09/04 01:36:30;;;;;;;25.17;19.10;;;17.20;95.60;;;;;;5071671;28;20471;-56
2021/09/04 01:38:56;;;;;;;23.38;18.75;;;17.00;95.90;;;;;;5071718;28;20112;-56
2021/09/04 01:41:22;;;;;;;22.05;18.27;;;16.90;96.30;;;;;;5073278;28;20032;-53
2021/09/04 01:43:50;;;;;;;20.52;17.52;;;16.90;96.30;;;;;;5091202;28;20127;-56
2021/09/04 01:46:15;;;;;;;25.30;18.42;;;16.80;96.30;;;;;;5095699;28;20024;-55
2021/09/04 01:48:41;;;;;;;25.15;18.58;;;16.90;96.30;;;;;;5095487;28;20115;-55
2021/09/04 01:51:07;;;;;;;22.38;17.60;;;16.80;96.40;;;;;;5095302;28;20030;-53
2021/09/04 01:53:32;;;;;;;21.55;17.27;;;16.90;96.30;;;;;;5094740;28;20035;-54
2021/09/04 01:56:00;;;;;;;24.77;18.70;;;16.60;96.80;;;;;;5094821;28;20102;-52
2021/09/04 01:58:25;;;;;;;25.10;18.70;;;16.60;96.70;;;;;;5077234;28;20390;-51
2021/09/04 02:00:51;;;;;;;30.15;21.42;;;16.60;96.80;;;;;;5094680;28;20119;-53
2021/09/04 02:03:17;;;;;;;26.70;20.33;;;16.20;97.50;;;;;;5076378;28;20024;-55
2021/09/04 02:05:43;;;;;;;27.27;20.02;;;16.30;97.70;;;;;;5094236;28;20494;-58
2021/09/04 02:08:08;;;;;;;23.45;19.38;;;16.30;97.40;;;;;;5093459;28;20548;-56
2021/09/04 02:10:34;;;;;;;23.83;18.60;;;16.30;97.70;;;;;;5094727;28;20036;-58
2021/09/04 02:13:00;;;;;;;25.77;19.50;;;16.20;97.90;;;;;;5094279;28;20024;-54
2021/09/04 02:15:25;;;;;;;26.48;19.35;;;16.30;97.70;;;;;;5094520;28;20082;-56
2021/09/04 02:17:51;;;;;;;23.73;18.35;;;16.40;97.80;;;;;;5094759;28;20086;-56
2021/09/04 02:20:16;;;;;;;23.63;18.55;;;16.40;97.70;;;;;;5084968;28;20073;-58
2021/09/04 02:22:42;;;;;;;24.48;18.00;;;16.40;97.70;;;;;;5073861;28;20033;-57
2021/09/04 02:25:08;;;;;;;21.92;18.80;;;16.40;97.70;;;;;;5074423;28;20104;-60
2021/09/04 02:27:34;;;;;;;24.17;19.00;;;16.40;97.60;;;;;;5074152;28;20538;-60
2021/09/04 02:30:00;;;;;;;24.65;19.40;;;16.40;97.70;;;;;;5073837;28;20064;-60
2021/09/04 02:32:25;;;;;;;28.33;19.38;;;16.40;97.60;;;;;;5073780;28;20033;-60
2021/09/04 02:34:51;;;;;;;26.88;20.85;;;16.40;97.60;;;;;;5073673;28;20037;-59
2021/09/04 02:37:17;;;;;;;25.83;20.23;;;16.30;97.80;;;;;;5074180;28;20029;-60
2021/09/04 02:39:44;;;;;;;32.72;21.65;;;16.30;97.80;;;;;;5074757;28;20028;-61
2021/09/04 02:42:10;;;;;;;27.90;20.90;;;16.20;97.80;;;;;;5075634;28;20377;-58
2021/09/04 02:44:36;;;;;;;29.90;23.08;;;16.20;98.00;;;;;;5094089;28;20043;-58
2021/09/04 02:47:01;;;;;;;27.27;21.80;;;16.00;98.30;;;;;;5094395;28;20039;-56
2021/09/04 02:49:27;;;;;;;33.20;23.27;;;15.90;98.50;;;;;;5093682;28;20032;-60
2021/09/04 02:51:52;;;;;;;32.47;23.83;;;15.90;98.60;;;;;;5093697;28;20040;-57
2021/09/04 02:54:18;;;;;;;32.15;22.83;;;15.70;98.90;;;;;;5093629;28;20063;-57
2021/09/04 02:56:44;;;;;;;31.70;22.90;;;15.70;99.00;;;;;;5094136;28;20039;-57
2021/09/04 02:59:09;;;;;;;29.20;24.73;;;15.80;98.90;;;;;;5093860;28;20039;-58
2021/09/04 03:01:35;;;;;;;32.83;23.92;;;15.80;98.90;;;;;;5093334;28;20035;-59
2021/09/04 03:04:00;;;;;;;30.40;23.33;;;15.60;99.20;;;;;;5093415;28;20073;-57
2021/09/04 03:06:26;;;;;;;29.48;22.55;;;15.70;99.10;;;;;;5093466;28;20020;-58
2021/09/04 03:08:53;;;;;;;30.38;22.88;;;15.60;99.40;;;;;;5093322;28;20038;-56
2021/09/04 03:11:19;;;;;;;28.00;22.45;;;15.70;99.20;;;;;;5093913;28;20032;-56
2021/09/04 03:13:45;;;;;;;31.90;23.70;;;15.60;99.30;;;;;;5093186;28;20028;-61
2021/09/04 03:16:11;;;;;;;30.88;23.05;;;15.60;99.40;;;;;;5075174;28;20111;-57
2021/09/04 03:18:37;;;;;;;32.08;23.98;;;15.60;99.40;;;;;;5093637;28;20459;-58
2021/09/04 03:21:03;;;;;;;32.40;23.50;;;15.60;99.40;;;;;;5077137;28;20115;-56
2021/09/04 03:23:28;;;;;;;37.40;25.17;;;15.70;99.30;;;;;;5073000;28;20115;-59
2021/09/04 03:25:54;;;;;;;33.60;25.42;;;15.60;99.50;;;;;;5073543;28;20028;-58
2021/09/04 03:28:20;;;;;;;33.38;26.80;;;15.60;99.50;;;;;;5073148;28;20421;-59
2021/09/04 03:30:45;;;;;;;36.20;25.75;;;15.60;99.50;;;;;;5054821;28;20024;-59
2021/09/04 03:33:11;;;;;;;33.97;25.90;;;15.60;99.50;;;;;;5072441;28;20495;-60
2021/09/04 03:35:37;;;;;;;35.13;25.90;;;15.60;99.80;;;;;;5072968;28;20036;-58
2021/09/04 03:38:02;;;;;;;36.38;26.15;;;15.50;99.80;;;;;;5072700;28;20048;-58
2021/09/04 03:40:28;;;;;;;36.72;26.90;;;15.40;99.90;;;;;;5072926;28;20396;-58
2021/09/04 03:42:54;;;;;;;38.30;26.88;;;15.30;99.90;;;;;;5080362;28;20083;-59
2021/09/04 03:45:19;;;;;;;37.45;27.48;;;15.40;99.90;;;;;;5092757;28;20028;-59
2021/09/04 03:47:45;;;;;;;42.90;27.23;;;15.30;99.90;;;;;;5092829;28;20081;-58
2021/09/04 03:50:11;;;;;;;39.92;25.83;;;15.40;99.90;;;;;;5092520;28;20024;-59
2021/09/04 03:52:36;;;;;;;40.75;28.38;;;15.40;99.90;;;;;;5092910;28;20483;-60
2021/09/04 03:55:02;;;;;;;41.17;27.23;;;15.50;99.90;;;;;;5092981;28;20527;-60
2021/09/04 03:57:29;;;;;;;45.42;29.95;;;15.40;99.90;;;;;;5093275;28;20434;-60
2021/09/04 03:59:55;;;;;;;42.25;28.10;;;15.40;99.90;;;;;;5093921;28;20086;-58
2021/09/04 04:02:21;;;;;;;42.25;28.40;;;15.30;99.90;;;;;;5092139;28;20024;-59
2021/09/04 04:04:46;;;;;;;42.55;29.17;;;15.30;99.90;;;;;;5092180;28;20518;-57
2021/09/04 04:07:12;;;;;;;43.95;30.15;;;15.30;99.90;;;;;;5092289;28;20028;-58
2021/09/04 04:09:38;;;;;;;44.13;30.42;;;15.20;99.90;;;;;;5092688;28;20032;-56
2021/09/04 04:12:04;;;;;;;48.58;31.75;;;15.30;99.90;;;;;;5092183;28;20028;-59
2021/09/04 04:14:29;;;;;;;44.85;30.10;;;15.40;99.90;;;;;;5092470;28;20454;-56
2021/09/04 04:16:55;;;;;;;46.33;29.83;;;15.40;99.90;;;;;;5092831;28;20413;-56
2021/09/04 04:19:20;;;;;;;45.30;29.35;;;15.40;99.90;;;;;;5090504;28;20028;-58
2021/09/04 04:21:46;;;;;;;47.55;30.33;;;15.40;99.90;;;;;;5071970;28;20033;-57
2021/09/04 04:24:11;;;;;;;47.80;29.45;;;15.40;99.90;;;;;;5072100;28;20044;-57
2021/09/04 04:26:37;;;;;;;47.15;29.30;;;15.40;99.90;;;;;;5072307;28;20124;-59
2021/09/04 04:29:02;;;;;;;39.55;29.83;;;15.30;99.90;;;;;;5072560;28;20041;-59
2021/09/04 04:31:28;;;;;;;47.75;30.63;;;15.30;99.90;;;;;;5072149;28;20029;-58
2021/09/04 04:33:54;;;;;;;46.55;28.67;;;15.40;99.90;;;;;;5072358;28;20036;-57
2021/09/04 04:36:20;;;;;;;45.00;29.27;;;15.40;99.90;;;;;;5072309;28;20077;-56
2021/09/04 04:38:46;;;;;;;45.22;29.73;;;15.40;99.90;;;;;;5072234;28;20036;-56
2021/09/04 04:41:11;;;;;;;44.13;29.70;;;15.50;99.90;;;;;;5072520;28;20033;-59
2021/09/04 04:43:37;;;;;;;42.67;28.17;;;15.40;99.90;;;;;;5085729;28;20054;-59
2021/09/04 04:46:02;;;;;;;43.85;29.02;;;15.40;99.90;;;;;;5091743;28;20111;-59
2021/09/04 04:48:30;;;;;;;40.97;29.15;;;15.50;99.90;;;;;;5092564;28;20442;-57
2021/09/04 04:50:55;;;;;;;46.97;29.55;;;15.60;99.90;;;;;;5092061;28;20522;-60
2021/09/04 04:53:21;;;;;;;43.78;29.98;;;15.50;99.90;;;;;;5094023;28;20032;-57
2021/09/04 04:55:47;;;;;;;45.55;28.67;;;15.40;99.90;;;;;;5092063;28;20074;-59
2021/09/04 04:58:12;;;;;;;41.15;28.80;;;15.40;99.90;;;;;;5092122;28;20040;-58
2021/09/04 05:00:38;;;;;;;40.60;26.90;;;15.40;99.90;;;;;;5091956;28;20035;-57
2021/09/04 05:03:03;;;;;;;42.22;25.60;;;15.40;99.90;;;;;;5091871;28;20031;-58
2021/09/04 05:05:30;;;;;;;41.83;26.13;;;15.40;99.90;;;;;;5091875;28;20052;-59
2021/09/04 05:07:56;;;;;;;40.15;25.73;;;15.40;99.90;;;;;;5092314;28;20103;-61
2021/09/04 05:10:21;;;;;;;42.90;25.45;;;15.50;99.90;;;;;;5092463;28;20174;-59
2021/09/04 05:12:47;;;;;;;38.15;25.90;;;15.50;99.90;;;;;;5091378;28;20121;-59
2021/09/04 05:15:12;;;;;;;37.17;25.60;;;15.50;99.90;;;;;;5092315;28;20035;-60
2021/09/04 05:17:38;;;;;;;38.55;25.58;;;15.60;99.90;;;;;;5097035;28;20479;-59
2021/09/04 05:20:05;;;;;;;41.33;24.98;;;15.60;99.90;;;;;;5088588;28;20064;-59
2021/09/04 05:22:31;;;;;;;40.75;25.30;;;15.70;99.90;;;;;;5075093;28;20016;-58
2021/09/04 05:24:56;;;;;;;38.60;24.13;;;15.70;99.90;;;;;;5076652;28;20586;-59
2021/09/04 05:27:22;;;;;;;37.13;25.55;;;15.80;99.90;;;;;;5076940;28;20072;-60
2021/09/04 05:29:47;;;;;;;40.55;25.83;;;15.80;99.90;;;;;;5077678;28;20028;-57
2021/09/04 05:32:13;;;;;;;47.95;26.55;;;15.80;99.90;;;;;;5077036;28;20033;-58
2021/09/04 05:34:38;;;;;;;42.40;27.88;;;15.70;99.90;;;;;;5077288;28;20043;-57
2021/09/04 05:37:04;;;;;;;39.25;25.23;;;15.50;99.90;;;;;;5077435;28;20032;-57
2021/09/04 05:39:30;;;;;;;41.95;27.38;;;15.70;99.90;;;;;;5076432;28;20071;-61
2021/09/04 05:41:55;;;;;;;47.90;27.40;;;15.80;99.90;;;;;;5076652;28;20399;-58
2021/09/04 05:44:21;;;;;;;40.15;26.13;;;15.70;99.90;;;;;;5095757;28;20032;-60
2021/09/04 05:46:46;;;;;;;43.85;28.02;;;15.80;99.90;;;;;;5096001;28;20020;-58
2021/09/04 05:49:12;;;;;;;45.35;26.40;;;15.90;99.90;;;;;;5097135;28;20079;-54
2021/09/04 05:51:37;;;;;;;39.72;26.70;;;15.80;99.90;;;;;;5095512;28;20031;-58
2021/09/04 05:54:03;;;;;;;44.50;28.77;;;15.80;99.90;;;;;;5095506;28;20032;-56
2021/09/04 05:56:28;;;;;;;45.08;30.33;;;15.80;99.90;;;;;;5096276;28;20035;-59
2021/09/04 05:58:54;;;;;;;45.45;29.38;;;15.70;99.90;;;;;;5095781;28;20024;-61
2021/09/04 06:01:19;;;;;;;45.85;30.00;;;15.90;99.90;;;;;;5095915;28;20086;-59
2021/09/04 06:03:45;;;;;;;42.08;30.85;;;15.70;99.90;;;;;;5095146;28;20090;-59
2021/09/04 06:06:11;;;;;;;48.88;30.65;;;15.90;99.90;;;;;;5094526;28;20032;-59
2021/09/04 06:08:36;;;;;;;42.00;30.23;;;15.80;99.90;;;;;;5094490;28;20032;-59
2021/09/04 06:11:02;;;;;;;41.05;28.75;;;15.90;99.90;;;;;;5094748;28;20063;-59
2021/09/04 06:13:27;;;;;;;51.10;29.38;;;16.00;99.90;;;;;;5094171;28;20114;-59
2021/09/04 06:15:53;;;;;;;40.20;29.25;;;15.90;99.90;;;;;;5094743;28;20040;-61
2021/09/04 06:18:18;;;;;;;41.65;28.30;;;16.00;99.90;;;;;;5094774;28;20040;-60
2021/09/04 06:20:44;;;;;;;45.53;28.77;;;16.00;99.90;;;;;;5081367;28;20056;-60
2021/09/04 06:23:09;;;;;;;40.97;28.45;;;15.90;99.90;;;;;;5074298;28;20086;-58
2021/09/04 06:25:37;;;;;;;40.28;26.42;;;15.80;99.90;;;;;;5074547;28;20074;-59
2021/09/04 06:28:02;;;;;;;43.80;26.90;;;15.80;99.90;;;;;;5073890;28;20115;-58
2021/09/04 06:30:28;;;;;;;41.90;25.92;;;15.70;99.90;;;;;;5074196;28;20774;-59
2021/09/04 06:32:54;;;;;;;34.08;24.80;;;15.70;99.90;;;;;;5073775;28;20163;-59
2021/09/04 06:35:19;;;;;;;36.92;23.73;;;15.70;99.90;;;;;;5075256;28;20032;-60
2021/09/04 06:37:45;;;;;;;35.35;24.38;;;15.70;99.90;;;;;;5074794;28;20530;-57
2021/09/04 06:40:10;;;;;;;36.95;24.83;;;15.70;99.90;;;;;;5073839;28;20534;-59
2021/09/04 06:42:37;;;;;;;33.70;23.48;;;15.90;99.90;;;;;;5079213;28;20044;-58
2021/09/04 06:45:03;;;;;;;32.55;23.75;;;15.90;99.90;;;;;;5094025;28;20440;-59
2021/09/04 06:47:29;;;;;;;31.92;22.90;;;15.90;99.90;;;;;;5093625;28;20407;-58
2021/09/04 06:49:55;;;;;;;37.05;25.42;;;16.00;99.90;;;;;;5094288;28;20040;-60
2021/09/04 06:52:20;;;;;;;35.55;22.23;;;15.90;99.90;;;;;;5093456;28;20048;-61
2021/09/04 06:54:46;;;;;;;36.20;22.73;;;16.00;99.90;;;;;;5094154;28;20136;-59
2021/09/04 06:57:11;;;;;;;37.00;23.33;;;16.10;99.90;;;;;;5094045;28;20352;-59
2021/09/04 06:59:37;;;;;;;31.08;22.45;;;16.00;99.90;;;;;;5093867;28;20060;-58
2021/09/04 07:02:03;;;;;;;36.45;23.42;;;16.10;99.90;;;;;;5093258;28;20039;-61
2021/09/04 07:04:28;;;;;;;33.15;22.75;;;16.10;99.90;;;;;;5094072;28;20028;-57
2021/09/04 07:06:54;;;;;;;34.00;22.58;;;15.90;99.90;;;;;;5094402;28;20616;-60
2021/09/04 07:09:19;;;;;;;36.67;22.58;;;15.90;99.90;;;;;;5093721;28;20024;-59
2021/09/04 07:11:45;;;;;;;32.88;23.42;;;16.00;99.90;;;;;;5093239;28;20028;-60
2021/09/04 07:14:10;;;;;;;32.50;22.92;;;15.90;99.90;;;;;;5093012;28;20063;-60
2021/09/04 07:16:36;;;;;;;37.88;24.25;;;16.00;99.90;;;;;;5093554;28;20036;-58
2021/09/04 07:19:02;;;;;;;35.83;24.48;;;16.10;99.90;;;;;;5093192;28;20055;-60
2021/09/04 07:21:27;;;;;;;35.42;24.08;;;16.00;99.90;;;;;;5074139;28;20036;-60
2021/09/04 07:23:53;;;;;;;35.22;24.27;;;16.10;99.90;;;;;;5072539;28;20484;-60
2021/09/04 07:26:18;;;;;;;33.60;23.33;;;15.90;99.90;;;;;;5073045;28;20046;-56
2021/09/04 07:28:44;;;;;;;35.10;23.92;;;15.90;99.90;;;;;;5055146;28;20104;-54
2021/09/04 07:31:09;;;;;;;30.38;23.13;;;16.00;99.90;;;;;;5073150;28;20546;-57
2021/09/04 07:33:35;;;;;;;31.42;21.95;;;15.90;99.90;;;;;;5072387;28;20036;-53
2021/09/04 07:36:03;;;;;;;33.25;24.13;;;15.90;99.90;;;;;;5072450;28;20032;-55
2021/09/04 07:38:29;;;;;;;32.08;23.05;;;15.90;99.90;;;;;;5072193;28;20037;-57
2021/09/04 07:40:54;;;;;;;36.03;24.00;;;15.90;99.90;;;;;;5072590;28;20040;-57
2021/09/04 07:43:20;;;;;;;31.63;22.55;;;15.90;99.90;;;;;;5072389;28;20037;-56
2021/09/04 07:45:45;;;;;;;33.10;23.50;;;15.90;99.90;;;;;;5072304;28;20368;-54
2021/09/04 07:48:11;;;;;;;35.22;24.23;;;15.90;99.90;;;;;;5072397;28;20032;-56
2021/09/04 07:50:37;;;;;;;32.88;23.20;;;15.80;99.90;;;;;;5072433;28;20039;-54
2021/09/04 07:53:03;;;;;;;30.35;21.33;;;15.80;99.90;;;;;;5072417;28;20036;-56
2021/09/04 07:55:29;;;;;;;36.85;23.35;;;15.80;99.90;;;;;;5073018;28;20052;-57
2021/09/04 07:57:54;;;;;;;32.88;22.52;;;15.80;99.90;;;;;;5074152;28;20052;-57
2021/09/04 08:00:20;;;;;;;33.70;23.20;;;15.90;99.90;;;;;;5072058;28;20036;-57
2021/09/04 08:02:45;;;;;;;33.30;22.83;;;15.70;99.90;;;;;;5072016;28;20028;-55
2021/09/04 08:05:11;;;;;;;35.83;23.55;;;15.70;99.90;;;;;;5072576;28;20025;-59
2021/09/04 08:07:37;;;;;;;33.05;21.95;;;15.70;99.90;;;;;;5078868;28;20032;-53
2021/09/04 08:10:04;;;;;;;34.45;22.40;;;15.90;99.90;;;;;;5092977;28;20035;-56
2021/09/04 08:12:30;;;;;;;31.58;20.50;;;15.90;99.90;;;;;;5092168;28;20055;-57
2021/09/04 08:14:56;;;;;;;28.70;19.70;;;15.90;99.90;;;;;;5092627;28;20051;-55
2021/09/04 08:17:21;;;;;;;35.13;21.95;;;16.10;99.90;;;;;;5092961;28;20028;-57
2021/09/04 08:19:47;;;;;;;27.88;19.20;;;16.00;99.90;;;;;;5087031;28;20028;-52
2021/09/04 08:22:13;;;;;;;28.95;19.85;;;16.10;99.90;;;;;;5071681;28;20079;-58
2021/09/04 08:24:38;;;;;;;29.50;20.50;;;16.20;99.90;;;;;;5072737;28;20028;-55
2021/09/04 08:27:04;;;;;;;29.30;20.30;;;16.30;99.90;;;;;;5071803;28;20028;-57
2021/09/04 08:29:29;;;;;;;31.25;21.20;;;16.30;99.90;;;;;;5072123;28;20043;-58
2021/09/04 08:31:55;;;;;;;29.73;20.25;;;15.90;99.90;;;;;;5071983;28;20064;-57
2021/09/04 08:34:21;;;;;;;28.75;20.20;;;15.90;99.90;;;;;;5072047;28;20051;-55
2021/09/04 08:36:46;;;;;;;29.77;19.58;;;15.80;99.90;;;;;;5072157;28;20098;-56
2021/09/04 08:39:12;;;;;;;31.90;19.58;;;15.80;99.90;;;;;;5072297;28;20054;-55
2021/09/04 08:41:38;;;;;;;28.98;19.88;;;16.00;99.90;;;;;;5071263;28;20044;-56
2021/09/04 08:44:05;;;;;;;27.00;19.55;;;16.00;99.90;;;;;;5089497;28;20031;-58
2021/09/04 08:46:36;;;;;;;32.53;20.20;;;15.90;99.90;;;;;;5092034;28;20016;-56
2021/09/04 08:49:04;;;;;;;26.75;18.67;;;15.90;99.90;;;;;;5092351;28;20065;-54
2021/09/04 08:51:30;;;;;;;24.50;18.05;;;16.00;99.90;;;;;;5096575;28;20040;-56
2021/09/04 08:53:56;;;;;;;27.85;18.58;;;16.10;99.90;;;;;;5096424;28;20150;-56
2021/09/04 08:56:22;;;;;;;25.60;18.02;;;16.10;99.90;;;;;;5096119;28;20111;-57
2021/09/04 08:58:47;;;;;;;25.08;17.98;;;16.10;99.90;;;;;;5096355;28;20115;-57
2021/09/04 09:01:22;;;;;;;25.95;18.20;;;16.10;99.90;;;;;;5096222;28;20491;-55
2021/09/04 09:03:49;;;;;;;24.38;17.15;;;16.10;99.90;;;;;;5096059;28;20024;-53
2021/09/04 09:06:29;;;;;;;21.17;14.88;;;16.00;99.90;;;;;;5096233;28;20024;-53
2021/09/04 09:08:55;;;;;;;20.98;14.85;;;15.70;99.90;;;;;;5095794;28;20024;-56
2021/09/04 09:11:21;;;;;;;23.25;15.30;;;15.80;99.90;;;;;;5096583;28;20029;-55
2021/09/04 09:13:53;;;;;;;25.30;16.83;;;15.80;99.90;;;;;;5095815;28;20438;-58
2021/09/04 09:16:22;;;;;;;24.80;16.73;;;16.00;99.90;;;;;;5096482;28;20036;-56
2021/09/04 09:19:03;;;;;;;24.45;15.50;;;16.00;99.90;;;;;;5097257;28;20040;-57
2021/09/04 09:21:33;;;;;;;22.13;15.70;;;16.10;99.90;;;;;;5076284;28;20508;-59
2021/09/04 09:24:19;;;;;;;22.70;15.48;;;16.00;99.90;;;;;;5078486;28;20039;-53
2021/09/04 09:27:01;;;;;;;24.88;15.48;;;15.90;99.90;;;;;;5095721;28;20035;-56
2021/09/04 09:29:32;;;;;;;22.67;15.18;;;15.80;99.90;;;;;;5095836;28;20032;-56
2021/09/04 09:32:02;;;;;;;29.75;16.60;;;15.90;99.90;;;;;;5095638;28;20086;-52
2021/09/04 09:34:28;;;;;;;28.60;18.33;;;15.90;99.90;;;;;;5096360;28;20032;-55
2021/09/04 09:37:02;;;;;;;27.90;17.65;;;15.90;99.90;;;;;;5096719;28;20024;-56
2021/09/04 09:39:39;;;;;;;27.63;18.42;;;16.00;99.90;;;;;;5096126;28;20032;-55
2021/09/04 09:42:07;;;;;;;31.60;21.80;;;16.00;99.90;;;;;;5095061;28;20040;-55
2021/09/04 09:44:34;;;;;;;35.28;22.10;;;15.90;99.90;;;;;;5095680;28;20100;-56
2021/09/04 09:47:02;;;;;;;35.88;23.20;;;15.80;99.70;;;;;;5095482;28;20105;-58
2021/09/04 09:49:36;;;;;;;33.78;23.38;;;15.80;99.90;;;;;;5097937;28;20035;-56
2021/09/04 09:52:05;;;;;;;34.65;23.52;;;15.90;99.60;;;;;;5095721;28;20029;-55
2021/09/04 09:54:32;;;;;;;36.45;23.60;;;15.90;99.90;;;;;;5096734;28;20040;-56
2021/09/04 09:57:00;;;;;;;33.00;24.25;;;16.00;99.70;;;;;;5097187;28;20038;-56
2021/09/04 09:59:28;;;;;;;29.55;20.70;;;16.20;99.10;;;;;;5097156;28;20032;-54
2021/09/04 10:01:55;;;;;;;29.45;20.50;;;16.20;99.10;;;;;;5095009;28;20908;-57
2021/09/04 10:04:27;;;;;;;25.25;18.70;;;16.10;99.20;;;;;;5096021;28;20549;-54
2021/09/04 10:06:54;;;;;;;27.13;19.83;;;16.20;99.00;;;;;;5078250;28;20039;-56
2021/09/04 10:09:22;;;;;;;27.48;19.15;;;16.30;98.90;;;;;;5095718;28;20028;-56
2021/09/04 10:11:48;;;;;;;28.70;18.73;;;16.30;98.90;;;;;;5095249;28;20502;-57
2021/09/04 10:14:14;;;;;;;27.50;18.40;;;16.40;98.80;;;;;;5094877;28;20060;-57
2021/09/04 10:16:41;;;;;;;24.83;18.10;;;16.50;98.60;;;;;;5095037;28;20114;-57
2021/09/04 10:19:08;;;;;;;30.52;20.98;;;16.40;98.70;;;;;;5095087;28;20028;-58
2021/09/04 10:21:38;;;;;;;25.70;19.00;;;16.40;98.50;;;;;;5094956;28;20038;-55
2021/09/04 10:24:05;;;;;;;26.90;20.35;;;16.50;98.40;;;;;;5094101;28;20043;-55
2021/09/04 10:26:32;;;;;;;30.20;19.77;;;16.30;98.60;;;;;;5095190;28;20032;-57
2021/09/04 10:29:03;;;;;;;27.20;18.77;;;16.10;99.40;;;;;;5094945;28;20043;-55
2021/09/04 10:31:40;;;;;;;27.77;19.88;;;16.30;98.80;;;;;;5094245;28;20403;-52
2021/09/04 10:34:17;;;;;;;31.95;20.13;;;16.40;98.60;;;;;;5094810;28;20028;-56
2021/09/04 10:36:57;;;;;;;27.27;19.00;;;16.10;98.90;;;;;;5095145;28;20100;-54
2021/09/04 10:39:24;;;;;;;29.08;20.27;;;16.20;98.90;;;;;;5095147;28;20518;-58
2021/09/04 10:41:51;;;;;;;28.27;21.15;;;16.30;98.60;;;;;;5094041;28;20051;-55
2021/09/04 10:44:23;;;;;;;31.98;20.08;;;16.30;98.50;;;;;;5094374;28;20167;-54
2021/09/04 10:46:48;;;;;;;28.48;20.17;;;16.40;98.70;;;;;;5094103;28;20107;-56
2021/09/04 10:49:38;;;;;;;33.45;21.73;;;16.50;98.30;;;;;;5094133;28;20474;-59
2021/09/04 10:52:04;;;;;;;34.10;22.42;;;16.60;98.00;;;;;;5094083;28;20035;-55
2021/09/04 10:54:59;;;;;;;32.72;22.20;;;16.10;98.80;;;;;;5093827;28;20029;-57
2021/09/04 10:57:25;;;;;;;33.25;22.92;;;16.10;98.90;;;;;;5095651;28;20023;-55
2021/09/04 11:00:21;;;;;;;33.85;21.25;;;16.20;98.80;;;;;;5097476;28;20032;-55
2021/09/04 11:02:59;;;;;;;30.02;21.52;;;16.50;98.30;;;;;;5083143;28;20036;-57
2021/09/04 11:05:44;;;;;;;31.45;22.33;;;16.50;98.00;;;;;;5096221;28;20107;-54
2021/09/04 11:08:20;;;;;;;35.35;22.65;;;16.60;97.90;;;;;;5095452;28;20016;-57
2021/09/04 11:11:06;;;;;;;30.15;22.30;;;16.70;97.70;;;;;;5079830;28;20107;-57
2021/09/04 11:13:35;;;;;;;32.72;21.83;;;16.60;97.60;;;;;;5094796;28;20506;-58
2021/09/04 11:16:36;;;;;;;31.08;21.17;;;16.60;97.60;;;;;;5093867;28;20047;-56
2021/09/04 11:19:13;;;;;;;28.60;20.15;;;16.80;97.20;;;;;;4992518;28;20042;-58
2021/09/04 11:21:49;;;;;;;28.77;20.35;;;16.90;96.90;;;;;;5062721;28;20051;-56
2021/09/04 11:24:19;;;;;;;27.55;19.95;;;16.80;96.90;;;;;;5072774;28;20036;-58
2021/09/04 11:27:08;;;;;;;33.15;21.38;;;16.80;97.00;;;;;;5072873;28;20036;-56
2021/09/04 11:29:37;;;;;;;29.60;19.17;;;16.90;96.90;;;;;;5066425;28;20662;-57
2021/09/04 11:32:03;;;;;;;30.33;19.50;;;17.00;96.70;;;;;;5072720;28;20032;-55
2021/09/04 11:34:41;;;;;;;31.33;19.65;;;17.20;96.60;;;;;;5072990;28;20115;-57
2021/09/04 11:37:36;;;;;;;27.80;19.35;;;17.30;96.10;;;;;;5038525;28;20040;-55
2021/09/04 11:40:07;;;;;;;;;;;17.40;95.70;;;;;;5073547;28;20495;-53
2021/09/04 11:42:43;;;;;;;28.70;19.95;;;17.00;96.50;;;;;;5077590;28;20326;-57
2021/09/04 11:45:22;;;;;;;31.00;20.65;;;16.90;96.60;;;;;;5093189;28;20110;-55
2021/09/04 11:47:50;;;;;;;32.42;20.35;;;17.10;96.30;;;;;;5095871;28;20497;-56
2021/09/04 11:50:23;;;;;;;31.95;20.25;;;17.30;96.20;;;;;;5092901;28;20032;-55
2021/09/04 11:52:50;;;;;;;26.73;19.92;;;17.50;95.80;;;;;;5092447;28;20056;-57
2021/09/04 11:55:18;;;;;;;27.15;18.77;;;17.60;95.40;;;;;;5093020;28;20039;-57
2021/09/04 11:57:45;;;;;;;25.55;19.20;;;17.50;95.60;;;;;;5093729;28;20372;-56
2021/09/04 12:00:18;;;;;;;27.77;19.17;;;17.40;95.70;;;;;;5093573;28;20032;-55
2021/09/04 12:02:57;;;;;;;28.67;19.45;;;17.40;95.80;;;;;;5092460;28;20432;-53
2021/09/04 12:05:25;;;;;;;28.85;19.45;;;17.60;95.70;;;;;;5092745;28;20028;-55
2021/09/04 12:07:55;;;;;;;27.33;19.08;;;17.70;95.30;;;;;;5092706;28;20024;-58
2021/09/04 12:10:24;;;;;;;33.25;21.25;;;17.70;95.20;;;;;;5092743;28;20491;-57
2021/09/04 12:12:55;;;;;;;21.88;18.00;;;17.50;95.40;;;;;;5092253;28;20085;-55
2021/09/04 12:15:21;;;;;;;23.80;17.88;;;17.30;96.00;;;;;;5092691;28;20066;-56
2021/09/04 12:17:59;;;;;;;28.08;19.67;;;17.70;95.30;;;;;;5092939;28;20032;-52
2021/09/04 12:20:43;;;;;;;29.52;19.08;;;17.90;94.90;;;;;;5081791;28;20134;-54
2021/09/04 12:23:18;;;;;;;;;;;17.80;95.00;;;;;;5072398;28;20432;-57
2021/09/04 12:25:46;;;;;;;30.55;20.05;;;17.80;95.20;;;;;;5072617;28;20290;-56
2021/09/04 12:28:14;;;;;;;29.85;20.58;;;17.70;95.20;;;;;;5072283;28;20028;-58
2021/09/04 12:31:01;;;;;;;28.00;18.80;;;17.80;95.10;;;;;;5072537;28;20375;-55